sensor_id;sensor_type;location;lat;lon;timestamp;temperature;humidity
72905;DHT22;61048;52.162;4.516;2022-10-16T00:01:52;18.00;66.30
72905;DHT22;61048;52.162;4.516;2022-10-16T00:04:19;18.10;66.40
72905;DHT22;61048;52.162;4.516;2022-10-16T00:06:46;18.10;66.40
72905;DHT22;61048;52.162;4.516;2022-10-16T00:09:13;18.10;66.30
72905;DHT22;61048;52.162;4.516;2022-10-16T00:11:41;18.10;66.50
72905;DHT22;61048;52.162;4.516;2022-10-16T00:14:11;18.10;66.20
72905;DHT22;61048;52.162;4.516;2022-10-16T00:16:39;18.00;66.20
72905;DHT22;61048;52.162;4.516;2022-10-16T00:19:06;18.00;66.30
72905;DHT22;61048;52.162;4.516;2022-10-16T00:21:33;18.00;66.30
72905;DHT22;61048;52.162;4.516;2022-10-16T00:24:02;18.00;66.30
72905;DHT22;61048;52.162;4.516;2022-10-16T00:26:31;18.00;66.40
72905;DHT22;61048;52.162;4.516;2022-10-16T00:28:58;18.00;66.40
72905;DHT22;61048;52.162;4.516;2022-10-16T00:31:27;18.00;66.40
72905;DHT22;61048;52.162;4.516;2022-10-16T00:33:55;18.10;66.40
72905;DHT22;61048;52.162;4.516;2022-10-16T00:36:23;18.00;66.30
72905;DHT22;61048;52.162;4.516;2022-10-16T00:38:51;18.00;66.40
72905;DHT22;61048;52.162;4.516;2022-10-16T00:41:21;18.00;66.40
72905;DHT22;61048;52.162;4.516;2022-10-16T00:43:50;18.00;66.30
72905;DHT22;61048;52.162;4.516;2022-10-16T00:46:19;18.00;66.30
72905;DHT22;61048;52.162;4.516;2022-10-16T00:48:51;18.00;66.30
72905;DHT22;61048;52.162;4.516;2022-10-16T00:51:23;18.00;66.40
72905;DHT22;61048;52.162;4.516;2022-10-16T00:53:52;18.10;66.40
72905;DHT22;61048;52.162;4.516;2022-10-16T00:56:19;18.10;66.40
72905;DHT22;61048;52.162;4.516;2022-10-16T00:58:46;18.10;66.40
72905;DHT22;61048;52.162;4.516;2022-10-16T01:01:13;18.00;66.40
72905;DHT22;61048;52.162;4.516;2022-10-16T01:03:40;18.10;66.30
72905;DHT22;61048;52.162;4.516;2022-10-16T01:06:20;18.00;66.40
72905;DHT22;61048;52.162;4.516;2022-10-16T01:08:57;18.00;66.40
72905;DHT22;61048;52.162;4.516;2022-10-16T01:11:32;18.10;66.50
72905;DHT22;61048;52.162;4.516;2022-10-16T01:14:06;18.10;66.40
72905;DHT22;61048;52.162;4.516;2022-10-16T01:16:42;18.10;66.40
72905;DHT22;61048;52.162;4.516;2022-10-16T01:19:15;18.10;66.50
72905;DHT22;61048;52.162;4.516;2022-10-16T01:21:47;18.00;66.50
72905;DHT22;61048;52.162;4.516;2022-10-16T01:24:21;18.00;66.40
72905;DHT22;61048;52.162;4.516;2022-10-16T01:27:10;18.00;66.50
72905;DHT22;61048;52.162;4.516;2022-10-16T01:29:42;18.00;66.30
72905;DHT22;61048;52.162;4.516;2022-10-16T01:32:16;18.00;66.50
72905;DHT22;61048;52.162;4.516;2022-10-16T01:34:48;18.00;66.40
72905;DHT22;61048;52.162;4.516;2022-10-16T01:37:21;18.10;66.30
72905;DHT22;61048;52.162;4.516;2022-10-16T01:39:50;18.00;66.50
72905;DHT22;61048;52.162;4.516;2022-10-16T01:42:24;18.00;66.60
72905;DHT22;61048;52.162;4.516;2022-10-16T01:44:54;18.00;66.60
72905;DHT22;61048;52.162;4.516;2022-10-16T01:47:24;18.10;66.60
72905;DHT22;61048;52.162;4.516;2022-10-16T01:49:52;18.10;66.70
72905;DHT22;61048;52.162;4.516;2022-10-16T01:52:21;18.10;66.70
72905;DHT22;61048;52.162;4.516;2022-10-16T01:54:53;18.10;66.80
72905;DHT22;61048;52.162;4.516;2022-10-16T01:57:24;18.10;66.90
72905;DHT22;61048;52.162;4.516;2022-10-16T01:59:54;18.10;66.80
72905;DHT22;61048;52.162;4.516;2022-10-16T02:02:22;18.10;66.80
72905;DHT22;61048;52.162;4.516;2022-10-16T02:04:57;18.10;66.80
72905;DHT22;61048;52.162;4.516;2022-10-16T02:07:24;18.10;67.10
72905;DHT22;61048;52.162;4.516;2022-10-16T02:09:51;18.10;66.80
72905;DHT22;61048;52.162;4.516;2022-10-16T02:12:23;18.10;66.90
72905;DHT22;61048;52.162;4.516;2022-10-16T02:14:52;18.10;66.80
72905;DHT22;61048;52.162;4.516;2022-10-16T02:17:19;18.10;66.90
72905;DHT22;61048;52.162;4.516;2022-10-16T02:19:48;18.10;67.00
72905;DHT22;61048;52.162;4.516;2022-10-16T02:22:18;18.10;67.10
72905;DHT22;61048;52.162;4.516;2022-10-16T02:24:51;18.10;67.10
72905;DHT22;61048;52.162;4.516;2022-10-16T02:27:26;18.10;67.30
72905;DHT22;61048;52.162;4.516;2022-10-16T02:29:57;18.10;67.20
72905;DHT22;61048;52.162;4.516;2022-10-16T02:32:30;18.10;67.20
72905;DHT22;61048;52.162;4.516;2022-10-16T02:34:58;18.10;67.30
72905;DHT22;61048;52.162;4.516;2022-10-16T02:37:26;18.10;67.30
72905;DHT22;61048;52.162;4.516;2022-10-16T02:39:54;18.10;67.30
72905;DHT22;61048;52.162;4.516;2022-10-16T02:42:29;18.10;67.30
72905;DHT22;61048;52.162;4.516;2022-10-16T02:44:56;18.10;67.20
72905;DHT22;61048;52.162;4.516;2022-10-16T02:47:23;18.10;67.30
72905;DHT22;61048;52.162;4.516;2022-10-16T02:49:50;18.10;67.30
72905;DHT22;61048;52.162;4.516;2022-10-16T02:52:16;18.10;67.40
72905;DHT22;61048;52.162;4.516;2022-10-16T02:54:43;18.10;67.30
72905;DHT22;61048;52.162;4.516;2022-10-16T02:57:10;18.10;67.40
72905;DHT22;61048;52.162;4.516;2022-10-16T02:59:38;18.10;67.40
72905;DHT22;61048;52.162;4.516;2022-10-16T03:02:05;18.10;67.40
72905;DHT22;61048;52.162;4.516;2022-10-16T03:04:32;18.10;67.50
72905;DHT22;61048;52.162;4.516;2022-10-16T03:06:59;18.10;67.40
72905;DHT22;61048;52.162;4.516;2022-10-16T03:09:26;18.10;67.50
72905;DHT22;61048;52.162;4.516;2022-10-16T03:11:52;18.10;67.50
72905;DHT22;61048;52.162;4.516;2022-10-16T03:14:19;18.10;67.60
72905;DHT22;61048;52.162;4.516;2022-10-16T03:16:47;18.10;67.50
72905;DHT22;61048;52.162;4.516;2022-10-16T03:19:17;18.10;67.50
72905;DHT22;61048;52.162;4.516;2022-10-16T03:21:44;18.10;67.50
72905;DHT22;61048;52.162;4.516;2022-10-16T03:24:11;18.10;67.60
72905;DHT22;61048;52.162;4.516;2022-10-16T03:26:37;18.10;67.60
72905;DHT22;61048;52.162;4.516;2022-10-16T03:29:04;18.10;67.60
72905;DHT22;61048;52.162;4.516;2022-10-16T03:31:32;18.10;67.50
72905;DHT22;61048;52.162;4.516;2022-10-16T03:34:00;18.10;67.70
72905;DHT22;61048;52.162;4.516;2022-10-16T03:36:27;18.10;67.70
72905;DHT22;61048;52.162;4.516;2022-10-16T03:38:54;18.10;67.70
72905;DHT22;61048;52.162;4.516;2022-10-16T03:41:20;18.10;67.80
72905;DHT22;61048;52.162;4.516;2022-10-16T03:43:47;18.10;67.80
72905;DHT22;61048;52.162;4.516;2022-10-16T03:46:14;18.10;67.90
72905;DHT22;61048;52.162;4.516;2022-10-16T03:48:41;18.10;67.70
72905;DHT22;61048;52.162;4.516;2022-10-16T03:51:09;18.10;67.70
72905;DHT22;61048;52.162;4.516;2022-10-16T03:53:36;18.10;67.50
72905;DHT22;61048;52.162;4.516;2022-10-16T03:56:03;18.10;67.60
72905;DHT22;61048;52.162;4.516;2022-10-16T03:58:30;18.10;67.80
72905;DHT22;61048;52.162;4.516;2022-10-16T04:00:56;18.10;67.80
72905;DHT22;61048;52.162;4.516;2022-10-16T04:03:23;18.10;67.80
72905;DHT22;61048;52.162;4.516;2022-10-16T04:05:50;18.10;67.90
72905;DHT22;61048;52.162;4.516;2022-10-16T04:08:19;18.10;67.80
72905;DHT22;61048;52.162;4.516;2022-10-16T04:10:45;18.10;67.70
72905;DHT22;61048;52.162;4.516;2022-10-16T04:13:12;18.10;67.80
72905;DHT22;61048;52.162;4.516;2022-10-16T04:15:39;18.10;67.80
72905;DHT22;61048;52.162;4.516;2022-10-16T04:18:06;18.10;67.90
72905;DHT22;61048;52.162;4.516;2022-10-16T04:20:33;18.10;67.90
72905;DHT22;61048;52.162;4.516;2022-10-16T04:23:00;18.10;67.80
72905;DHT22;61048;52.162;4.516;2022-10-16T04:25:29;18.10;67.80
72905;DHT22;61048;52.162;4.516;2022-10-16T04:27:56;18.10;67.80
72905;DHT22;61048;52.162;4.516;2022-10-16T04:30:23;18.10;67.70
72905;DHT22;61048;52.162;4.516;2022-10-16T04:32:51;18.10;67.90
72905;DHT22;61048;52.162;4.516;2022-10-16T04:35:19;18.10;67.80
72905;DHT22;61048;52.162;4.516;2022-10-16T04:37:46;18.00;67.80
72905;DHT22;61048;52.162;4.516;2022-10-16T04:40:13;18.10;68.00
72905;DHT22;61048;52.162;4.516;2022-10-16T04:42:41;18.10;68.10
72905;DHT22;61048;52.162;4.516;2022-10-16T04:45:09;18.10;68.10
72905;DHT22;61048;52.162;4.516;2022-10-16T04:47:35;18.10;68.10
72905;DHT22;61048;52.162;4.516;2022-10-16T04:50:03;18.10;68.00
72905;DHT22;61048;52.162;4.516;2022-10-16T04:52:29;18.10;68.20
72905;DHT22;61048;52.162;4.516;2022-10-16T04:54:57;18.10;68.10
72905;DHT22;61048;52.162;4.516;2022-10-16T04:57:27;18.10;68.10
72905;DHT22;61048;52.162;4.516;2022-10-16T04:59:55;18.10;68.10
72905;DHT22;61048;52.162;4.516;2022-10-16T05:02:21;18.10;68.30
72905;DHT22;61048;52.162;4.516;2022-10-16T05:04:48;18.10;68.30
72905;DHT22;61048;52.162;4.516;2022-10-16T05:07:15;18.10;68.20
72905;DHT22;61048;52.162;4.516;2022-10-16T05:09:42;18.10;68.20
72905;DHT22;61048;52.162;4.516;2022-10-16T05:12:09;18.10;68.20
72905;DHT22;61048;52.162;4.516;2022-10-16T05:14:35;18.10;68.10
72905;DHT22;61048;52.162;4.516;2022-10-16T05:17:04;18.10;68.00
72905;DHT22;61048;52.162;4.516;2022-10-16T05:19:31;18.10;68.10
72905;DHT22;61048;52.162;4.516;2022-10-16T05:21:57;18.10;68.10
72905;DHT22;61048;52.162;4.516;2022-10-16T05:24:24;18.10;68.00
72905;DHT22;61048;52.162;4.516;2022-10-16T05:26:51;18.10;68.10
72905;DHT22;61048;52.162;4.516;2022-10-16T05:29:18;18.10;68.20
72905;DHT22;61048;52.162;4.516;2022-10-16T05:31:45;18.10;68.20
72905;DHT22;61048;52.162;4.516;2022-10-16T05:34:14;18.10;68.30
72905;DHT22;61048;52.162;4.516;2022-10-16T05:36:40;18.10;68.30
72905;DHT22;61048;52.162;4.516;2022-10-16T05:39:07;18.10;68.30
72905;DHT22;61048;52.162;4.516;2022-10-16T05:41:34;18.10;68.30
72905;DHT22;61048;52.162;4.516;2022-10-16T05:44:04;18.10;68.30
72905;DHT22;61048;52.162;4.516;2022-10-16T05:46:31;18.10;68.50
72905;DHT22;61048;52.162;4.516;2022-10-16T05:48:58;18.10;68.50
72905;DHT22;61048;52.162;4.516;2022-10-16T05:51:26;18.10;68.50
72905;DHT22;61048;52.162;4.516;2022-10-16T05:53:53;18.10;68.50
72905;DHT22;61048;52.162;4.516;2022-10-16T05:56:19;18.10;68.60
72905;DHT22;61048;52.162;4.516;2022-10-16T05:58:46;18.10;68.60
72905;DHT22;61048;52.162;4.516;2022-10-16T06:01:15;18.10;68.40
72905;DHT22;61048;52.162;4.516;2022-10-16T06:03:42;18.10;68.40
72905;DHT22;61048;52.162;4.516;2022-10-16T06:06:10;18.10;68.50
72905;DHT22;61048;52.162;4.516;2022-10-16T06:08:39;18.10;68.60
72905;DHT22;61048;52.162;4.516;2022-10-16T06:11:08;18.10;68.50
72905;DHT22;61048;52.162;4.516;2022-10-16T06:13:35;18.10;68.50
72905;DHT22;61048;52.162;4.516;2022-10-16T06:16:03;18.10;68.50
72905;DHT22;61048;52.162;4.516;2022-10-16T06:18:30;18.10;68.50
72905;DHT22;61048;52.162;4.516;2022-10-16T06:20:57;18.10;68.50
72905;DHT22;61048;52.162;4.516;2022-10-16T06:23:24;18.10;68.50
72905;DHT22;61048;52.162;4.516;2022-10-16T06:25:53;18.10;68.50
72905;DHT22;61048;52.162;4.516;2022-10-16T06:28:19;18.10;68.40
72905;DHT22;61048;52.162;4.516;2022-10-16T06:30:46;18.10;68.40
72905;DHT22;61048;52.162;4.516;2022-10-16T06:33:13;18.10;68.30
72905;DHT22;61048;52.162;4.516;2022-10-16T06:35:40;18.10;68.30
72905;DHT22;61048;52.162;4.516;2022-10-16T06:38:07;18.10;68.50
72905;DHT22;61048;52.162;4.516;2022-10-16T06:40:34;18.10;68.40
72905;DHT22;61048;52.162;4.516;2022-10-16T06:43:02;18.10;68.20
72905;DHT22;61048;52.162;4.516;2022-10-16T06:45:29;18.10;68.30
72905;DHT22;61048;52.162;4.516;2022-10-16T06:47:55;18.10;68.40
72905;DHT22;61048;52.162;4.516;2022-10-16T06:50:22;18.10;68.30
72905;DHT22;61048;52.162;4.516;2022-10-16T06:52:49;18.10;68.40
72905;DHT22;61048;52.162;4.516;2022-10-16T06:55:16;18.10;68.40
72905;DHT22;61048;52.162;4.516;2022-10-16T06:57:43;18.10;68.30
72905;DHT22;61048;52.162;4.516;2022-10-16T07:00:12;18.10;68.30
72905;DHT22;61048;52.162;4.516;2022-10-16T07:02:39;18.10;68.30
72905;DHT22;61048;52.162;4.516;2022-10-16T07:05:06;18.10;68.40
72905;DHT22;61048;52.162;4.516;2022-10-16T07:07:33;18.10;68.20
72905;DHT22;61048;52.162;4.516;2022-10-16T07:10:00;18.10;68.20
72905;DHT22;61048;52.162;4.516;2022-10-16T07:12:27;18.10;68.30
72905;DHT22;61048;52.162;4.516;2022-10-16T07:14:54;18.20;68.30
72905;DHT22;61048;52.162;4.516;2022-10-16T07:17:23;18.20;68.20
72905;DHT22;61048;52.162;4.516;2022-10-16T07:19:49;18.20;68.10
72905;DHT22;61048;52.162;4.516;2022-10-16T07:22:18;18.20;68.00
72905;DHT22;61048;52.162;4.516;2022-10-16T07:24:45;18.20;68.10
72905;DHT22;61048;52.162;4.516;2022-10-16T07:27:12;18.20;68.30
72905;DHT22;61048;52.162;4.516;2022-10-16T07:29:39;18.30;68.20
72905;DHT22;61048;52.162;4.516;2022-10-16T07:32:06;18.30;67.80
72905;DHT22;61048;52.162;4.516;2022-10-16T07:34:34;18.30;67.90
72905;DHT22;61048;52.162;4.516;2022-10-16T07:37:01;18.30;67.80
72905;DHT22;61048;52.162;4.516;2022-10-16T07:39:27;18.30;67.80
72905;DHT22;61048;52.162;4.516;2022-10-16T07:41:54;18.30;67.90
72905;DHT22;61048;52.162;4.516;2022-10-16T07:44:21;18.30;68.40
72905;DHT22;61048;52.162;4.516;2022-10-16T07:46:48;18.40;68.10
72905;DHT22;61048;52.162;4.516;2022-10-16T07:49:15;18.40;67.60
72905;DHT22;61048;52.162;4.516;2022-10-16T07:51:43;18.40;67.90
72905;DHT22;61048;52.162;4.516;2022-10-16T07:54:10;18.40;68.20
72905;DHT22;61048;52.162;4.516;2022-10-16T07:56:37;18.40;68.00
72905;DHT22;61048;52.162;4.516;2022-10-16T07:59:04;18.50;68.20
72905;DHT22;61048;52.162;4.516;2022-10-16T08:01:31;18.60;68.00
72905;DHT22;61048;52.162;4.516;2022-10-16T08:03:58;18.60;67.70
72905;DHT22;61048;52.162;4.516;2022-10-16T08:06:24;18.70;67.40
72905;DHT22;61048;52.162;4.516;2022-10-16T08:08:53;18.70;67.20
72905;DHT22;61048;52.162;4.516;2022-10-16T08:11:20;18.80;67.00
72905;DHT22;61048;52.162;4.516;2022-10-16T08:13:48;18.80;66.90
72905;DHT22;61048;52.162;4.516;2022-10-16T08:16:15;18.80;66.70
72905;DHT22;61048;52.162;4.516;2022-10-16T08:18:42;18.80;66.70
72905;DHT22;61048;52.162;4.516;2022-10-16T08:21:14;19.00;67.10
72905;DHT22;61048;52.162;4.516;2022-10-16T08:23:41;19.20;67.30
72905;DHT22;61048;52.162;4.516;2022-10-16T08:26:09;19.30;66.80
72905;DHT22;61048;52.162;4.516;2022-10-16T08:28:36;19.30;66.50
72905;DHT22;61048;52.162;4.516;2022-10-16T08:31:08;19.30;66.30
72905;DHT22;61048;52.162;4.516;2022-10-16T08:33:36;19.30;66.20
72905;DHT22;61048;52.162;4.516;2022-10-16T08:36:03;19.30;66.10
72905;DHT22;61048;52.162;4.516;2022-10-16T08:38:31;19.30;65.90
72905;DHT22;61048;52.162;4.516;2022-10-16T08:41:10;19.30;65.90
72905;DHT22;61048;52.162;4.516;2022-10-16T08:44:00;19.20;66.00
72905;DHT22;61048;52.162;4.516;2022-10-16T08:46:38;19.20;66.30
72905;DHT22;61048;52.162;4.516;2022-10-16T08:49:11;19.10;66.80
72905;DHT22;61048;52.162;4.516;2022-10-16T08:51:39;19.10;67.40
72905;DHT22;61048;52.162;4.516;2022-10-16T08:54:15;19.10;67.60
72905;DHT22;61048;52.162;4.516;2022-10-16T08:56:46;19.10;67.50
72905;DHT22;61048;52.162;4.516;2022-10-16T08:59:14;19.10;67.40
72905;DHT22;61048;52.162;4.516;2022-10-16T09:01:45;19.00;67.70
72905;DHT22;61048;52.162;4.516;2022-10-16T09:07:17;19.00;67.60
72905;DHT22;61048;52.162;4.516;2022-10-16T09:09:58;19.00;67.60
72905;DHT22;61048;52.162;4.516;2022-10-16T09:12:38;19.00;67.40
72905;DHT22;61048;52.162;4.516;2022-10-16T09:15:17;19.00;67.30
72905;DHT22;61048;52.162;4.516;2022-10-16T09:17:53;19.10;66.90
72905;DHT22;61048;52.162;4.516;2022-10-16T09:20:30;19.10;66.50
72905;DHT22;61048;52.162;4.516;2022-10-16T09:23:16;19.10;66.10
72905;DHT22;61048;52.162;4.516;2022-10-16T09:25:46;19.10;65.90
72905;DHT22;61048;52.162;4.516;2022-10-16T09:28:15;19.10;65.70
72905;DHT22;61048;52.162;4.516;2022-10-16T09:30:43;19.10;65.60
72905;DHT22;61048;52.162;4.516;2022-10-16T09:33:12;19.10;65.60
72905;DHT22;61048;52.162;4.516;2022-10-16T09:35:42;19.10;65.60
72905;DHT22;61048;52.162;4.516;2022-10-16T09:38:20;19.10;65.40
72905;DHT22;61048;52.162;4.516;2022-10-16T09:40:47;19.10;65.40
72905;DHT22;61048;52.162;4.516;2022-10-16T09:43:22;19.10;65.50
72905;DHT22;61048;52.162;4.516;2022-10-16T09:45:58;19.10;65.30
72905;DHT22;61048;52.162;4.516;2022-10-16T09:48:27;19.10;65.30
72905;DHT22;61048;52.162;4.516;2022-10-16T09:50:58;19.10;65.30
72905;DHT22;61048;52.162;4.516;2022-10-16T09:53:37;19.10;65.20
72905;DHT22;61048;52.162;4.516;2022-10-16T09:56:05;19.10;65.10
72905;DHT22;61048;52.162;4.516;2022-10-16T09:58:33;19.10;65.00
72905;DHT22;61048;52.162;4.516;2022-10-16T10:01:00;19.10;64.70
72905;DHT22;61048;52.162;4.516;2022-10-16T10:03:37;19.10;65.20
72905;DHT22;61048;52.162;4.516;2022-10-16T10:06:15;19.20;65.00
72905;DHT22;61048;52.162;4.516;2022-10-16T10:08:53;19.30;66.40
72905;DHT22;61048;52.162;4.516;2022-10-16T10:11:39;19.30;66.60
72905;DHT22;61048;52.162;4.516;2022-10-16T10:14:17;19.30;66.50
72905;DHT22;61048;52.162;4.516;2022-10-16T10:16:44;19.30;66.60
72905;DHT22;61048;52.162;4.516;2022-10-16T10:19:15;19.30;66.90
72905;DHT22;61048;52.162;4.516;2022-10-16T10:21:42;19.30;66.80
72905;DHT22;61048;52.162;4.516;2022-10-16T10:24:11;19.30;67.10
72905;DHT22;61048;52.162;4.516;2022-10-16T10:26:39;19.30;67.10
72905;DHT22;61048;52.162;4.516;2022-10-16T10:29:13;19.30;66.90
72905;DHT22;61048;52.162;4.516;2022-10-16T10:31:48;19.30;66.50
72905;DHT22;61048;52.162;4.516;2022-10-16T10:34:42;19.20;66.60
72905;DHT22;61048;52.162;4.516;2022-10-16T10:37:24;19.20;66.60
72905;DHT22;61048;52.162;4.516;2022-10-16T10:39:57;19.20;66.40
72905;DHT22;61048;52.162;4.516;2022-10-16T10:42:30;19.20;66.20
72905;DHT22;61048;52.162;4.516;2022-10-16T10:45:16;19.20;66.00
72905;DHT22;61048;52.162;4.516;2022-10-16T10:47:52;19.20;65.70
72905;DHT22;61048;52.162;4.516;2022-10-16T10:50:24;19.20;65.70
72905;DHT22;61048;52.162;4.516;2022-10-16T10:53:04;19.20;65.70
72905;DHT22;61048;52.162;4.516;2022-10-16T10:55:39;19.20;66.00
72905;DHT22;61048;52.162;4.516;2022-10-16T10:58:25;19.20;65.70
72905;DHT22;61048;52.162;4.516;2022-10-16T11:01:01;19.20;65.30
72905;DHT22;61048;52.162;4.516;2022-10-16T11:03:42;19.30;64.00
72905;DHT22;61048;52.162;4.516;2022-10-16T11:06:16;19.40;64.90
72905;DHT22;61048;52.162;4.516;2022-10-16T11:08:46;19.50;64.70
72905;DHT22;61048;52.162;4.516;2022-10-16T11:11:18;19.50;64.50
72905;DHT22;61048;52.162;4.516;2022-10-16T11:13:54;19.50;64.50
72905;DHT22;61048;52.162;4.516;2022-10-16T11:16:27;19.60;64.40
72905;DHT22;61048;52.162;4.516;2022-10-16T11:18:58;19.60;64.10
72905;DHT22;61048;52.162;4.516;2022-10-16T11:21:30;19.70;63.30
72905;DHT22;61048;52.162;4.516;2022-10-16T11:24:09;19.70;62.70
72905;DHT22;61048;52.162;4.516;2022-10-16T11:29:14;20.00;62.60
72905;DHT22;61048;52.162;4.516;2022-10-16T11:31:48;19.70;62.70
72905;DHT22;61048;52.162;4.516;2022-10-16T11:34:24;19.70;62.90
72905;DHT22;61048;52.162;4.516;2022-10-16T11:36:55;19.60;62.50
72905;DHT22;61048;52.162;4.516;2022-10-16T11:39:25;19.70;62.30
72905;DHT22;61048;52.162;4.516;2022-10-16T11:41:56;19.60;61.90
72905;DHT22;61048;52.162;4.516;2022-10-16T11:44:38;19.70;62.10
72905;DHT22;61048;52.162;4.516;2022-10-16T11:47:21;19.70;61.70
72905;DHT22;61048;52.162;4.516;2022-10-16T11:52:22;20.20;61.40
72905;DHT22;61048;52.162;4.516;2022-10-16T11:54:54;19.80;61.80
72905;DHT22;61048;52.162;4.516;2022-10-16T11:57:24;19.90;61.60
72905;DHT22;61048;52.162;4.516;2022-10-16T11:59:55;19.90;61.60
72905;DHT22;61048;52.162;4.516;2022-10-16T12:02:40;19.90;60.70
72905;DHT22;61048;52.162;4.516;2022-10-16T12:05:20;19.90;60.10
72905;DHT22;61048;52.162;4.516;2022-10-16T12:07:54;20.00;60.50
72905;DHT22;61048;52.162;4.516;2022-10-16T12:10:26;20.00;60.50
72905;DHT22;61048;52.162;4.516;2022-10-16T12:12:53;20.00;60.60
72905;DHT22;61048;52.162;4.516;2022-10-16T12:15:24;20.00;60.90
72905;DHT22;61048;52.162;4.516;2022-10-16T12:17:53;20.10;60.70
72905;DHT22;61048;52.162;4.516;2022-10-16T12:20:24;20.10;60.60
72905;DHT22;61048;52.162;4.516;2022-10-16T12:22:54;20.10;60.00
72905;DHT22;61048;52.162;4.516;2022-10-16T12:25:23;20.20;60.60
72905;DHT22;61048;52.162;4.516;2022-10-16T12:30:24;20.50;60.90
72905;DHT22;61048;52.162;4.516;2022-10-16T12:32:57;20.30;60.80
72905;DHT22;61048;52.162;4.516;2022-10-16T12:35:27;20.20;60.00
72905;DHT22;61048;52.162;4.516;2022-10-16T12:38:05;20.20;61.20
72905;DHT22;61048;52.162;4.516;2022-10-16T12:40:35;20.20;61.70
72905;DHT22;61048;52.162;4.516;2022-10-16T12:43:13;20.20;61.10
72905;DHT22;61048;52.162;4.516;2022-10-16T12:45:59;20.20;59.50
72905;DHT22;61048;52.162;4.516;2022-10-16T12:48:27;20.20;59.40
72905;DHT22;61048;52.162;4.516;2022-10-16T12:50:55;20.20;59.60
72905;DHT22;61048;52.162;4.516;2022-10-16T12:53:24;20.30;59.20
72905;DHT22;61048;52.162;4.516;2022-10-16T12:56:03;20.20;59.80
72905;DHT22;61048;52.162;4.516;2022-10-16T12:58:55;20.20;58.40
72905;DHT22;61048;52.162;4.516;2022-10-16T13:04:13;20.70;59.90
72905;DHT22;61048;52.162;4.516;2022-10-16T13:06:50;20.30;58.60
72905;DHT22;61048;52.162;4.516;2022-10-16T13:09:37;20.30;58.60
72905;DHT22;61048;52.162;4.516;2022-10-16T13:12:35;20.40;57.20
72905;DHT22;61048;52.162;4.516;2022-10-16T13:15:28;20.40;58.60
72905;DHT22;61048;52.162;4.516;2022-10-16T13:18:04;20.40;58.90
72905;DHT22;61048;52.162;4.516;2022-10-16T13:20:40;20.40;59.00
72905;DHT22;61048;52.162;4.516;2022-10-16T13:25:50;20.80;57.30
72905;DHT22;61048;52.162;4.516;2022-10-16T13:28:27;20.50;58.70
72905;DHT22;61048;52.162;4.516;2022-10-16T13:30:56;20.50;58.20
72905;DHT22;61048;52.162;4.516;2022-10-16T13:33:30;20.50;58.20
72905;DHT22;61048;52.162;4.516;2022-10-16T13:36:01;20.50;58.00
72905;DHT22;61048;52.162;4.516;2022-10-16T13:40:57;20.90;58.00
72905;DHT22;61048;52.162;4.516;2022-10-16T13:43:28;20.60;58.30
72905;DHT22;61048;52.162;4.516;2022-10-16T13:46:00;20.60;58.70
72905;DHT22;61048;52.162;4.516;2022-10-16T13:48:29;20.60;58.10
72905;DHT22;61048;52.162;4.516;2022-10-16T13:51:02;20.60;58.20
72905;DHT22;61048;52.162;4.516;2022-10-16T13:53:31;20.60;57.40
72905;DHT22;61048;52.162;4.516;2022-10-16T13:55:58;20.60;57.90
72905;DHT22;61048;52.162;4.516;2022-10-16T13:58:25;20.60;58.00
72905;DHT22;61048;52.162;4.516;2022-10-16T14:00:55;20.60;57.90
72905;DHT22;61048;52.162;4.516;2022-10-16T14:05:51;21.00;57.40
72905;DHT22;61048;52.162;4.516;2022-10-16T14:08:20;20.60;57.80
72905;DHT22;61048;52.162;4.516;2022-10-16T14:10:48;20.60;57.70
72905;DHT22;61048;52.162;4.516;2022-10-16T14:13:19;20.60;58.80
72905;DHT22;61048;52.162;4.516;2022-10-16T14:18:19;21.00;57.80
72905;DHT22;61048;52.162;4.516;2022-10-16T14:20:46;20.60;58.30
72905;DHT22;61048;52.162;4.516;2022-10-16T14:23:23;20.60;58.30
72905;DHT22;61048;52.162;4.516;2022-10-16T14:25:51;20.60;58.10
72905;DHT22;61048;52.162;4.516;2022-10-16T14:28:20;20.60;57.90
72905;DHT22;61048;52.162;4.516;2022-10-16T14:30:52;20.60;58.10
72905;DHT22;61048;52.162;4.516;2022-10-16T14:33:23;20.60;57.90
72905;DHT22;61048;52.162;4.516;2022-10-16T14:38:28;20.90;57.90
72905;DHT22;61048;52.162;4.516;2022-10-16T14:40:57;20.50;58.10
72905;DHT22;61048;52.162;4.516;2022-10-16T14:43:31;20.50;58.50
72905;DHT22;61048;52.162;4.516;2022-10-16T14:45:58;20.50;58.20
72905;DHT22;61048;52.162;4.516;2022-10-16T14:50:53;20.90;58.40
72905;DHT22;61048;52.162;4.516;2022-10-16T14:53:20;20.50;58.50
72905;DHT22;61048;52.162;4.516;2022-10-16T14:55:48;20.50;57.60
72905;DHT22;61048;52.162;4.516;2022-10-16T14:58:17;20.40;58.50
72905;DHT22;61048;52.162;4.516;2022-10-16T15:00:45;20.40;58.20
72905;DHT22;61048;52.162;4.516;2022-10-16T15:03:12;20.40;58.10
72905;DHT22;61048;52.162;4.516;2022-10-16T15:05:39;20.30;58.10
72905;DHT22;61048;52.162;4.516;2022-10-16T15:08:06;20.30;58.40
72905;DHT22;61048;52.162;4.516;2022-10-16T15:10:38;20.30;57.80
72905;DHT22;61048;52.162;4.516;2022-10-16T15:13:08;20.30;58.70
72905;DHT22;61048;52.162;4.516;2022-10-16T15:15:37;20.30;59.60
72905;DHT22;61048;52.162;4.516;2022-10-16T15:18:04;20.30;59.70
72905;DHT22;61048;52.162;4.516;2022-10-16T15:20:32;20.20;59.70
72905;DHT22;61048;52.162;4.516;2022-10-16T15:23:00;20.20;59.00
72905;DHT22;61048;52.162;4.516;2022-10-16T15:25:37;20.20;59.80
72905;DHT22;61048;52.162;4.516;2022-10-16T15:28:06;20.20;58.90
72905;DHT22;61048;52.162;4.516;2022-10-16T15:30:33;20.10;59.70
72905;DHT22;61048;52.162;4.516;2022-10-16T15:33:01;20.10;59.80
72905;DHT22;61048;52.162;4.516;2022-10-16T15:35:28;20.10;59.50
72905;DHT22;61048;52.162;4.516;2022-10-16T15:37:55;20.10;59.40
72905;DHT22;61048;52.162;4.516;2022-10-16T15:40:22;20.10;59.30
72905;DHT22;61048;52.162;4.516;2022-10-16T15:42:49;20.00;59.20
72905;DHT22;61048;52.162;4.516;2022-10-16T15:45:18;20.00;59.00
72905;DHT22;61048;52.162;4.516;2022-10-16T15:47:45;19.90;58.60
72905;DHT22;61048;52.162;4.516;2022-10-16T15:50:14;19.90;58.60
72905;DHT22;61048;52.162;4.516;2022-10-16T15:52:41;19.90;58.40
72905;DHT22;61048;52.162;4.516;2022-10-16T15:55:10;19.80;58.90
72905;DHT22;61048;52.162;4.516;2022-10-16T15:57:37;19.80;58.90
72905;DHT22;61048;52.162;4.516;2022-10-16T16:02:35;20.20;58.80
72905;DHT22;61048;52.162;4.516;2022-10-16T16:07:32;20.30;58.70
72905;DHT22;61048;52.162;4.516;2022-10-16T16:09:59;20.00;59.10
72905;DHT22;61048;52.162;4.516;2022-10-16T16:12:26;20.00;59.40
72905;DHT22;61048;52.162;4.516;2022-10-16T16:29:40;20.20;60.60
72905;DHT22;61048;52.162;4.516;2022-10-16T16:32:07;20.00;60.20
72905;DHT22;61048;52.162;4.516;2022-10-16T16:34:34;20.00;60.60
72905;DHT22;61048;52.162;4.516;2022-10-16T16:37:02;20.00;60.50